createdAt,value
2018-08-17T00:37:30.451Z,25.4
2018-08-17T00:38:20.182Z,25.4
2018-08-17T00:39:10.814Z,25.4
2018-08-17T00:39:59.741Z,25.4
2018-08-17T00:40:50.141Z,25.4
2018-08-17T00:41:40.749Z,25.4
2018-08-17T00:42:30.566Z,25.4
2018-08-17T00:43:20.323Z,25.4
2018-08-17T00:44:10.849Z,25.4
2018-08-17T00:45:01.211Z,25.4
2018-08-17T00:45:51.260Z,25.4
2018-08-17T00:46:41.050Z,25.4
2018-08-17T00:47:31.090Z,25.4
2018-08-17T00:48:20.353Z,25.4
2018-08-17T00:49:11.189Z,25.4
2018-08-17T00:50:01.004Z,25.4
2018-08-17T00:50:51.091Z,25.4
2018-08-17T00:51:41.446Z,25.4
2018-08-17T00:52:31.798Z,25.4
2018-08-17T00:53:21.965Z,25.4
2018-08-17T00:54:11.637Z,25.4
2018-08-17T00:55:01.708Z,25.4
2018-08-17T00:55:51.827Z,25.4
2018-08-17T00:56:42.102Z,25.4
2018-08-17T00:57:32.477Z,25.4
2018-08-17T00:58:22.565Z,25.4
2018-08-17T00:59:11.785Z,25.4
2018-08-17T01:00:01.792Z,25.3
2018-08-17T01:00:52.397Z,25.4
2018-08-17T01:01:42.467Z,25.4
2018-08-17T01:02:31.982Z,25.3
2018-08-17T01:03:22.636Z,25.4
2018-08-17T01:04:12.982Z,25.4
2018-08-17T01:05:02.732Z,25.4
2018-08-17T01:05:52.733Z,25.4
2018-08-17T01:06:42.602Z,25.3
2018-08-17T01:07:32.951Z,25.3
2018-08-17T01:08:22.970Z,25.4
2018-08-17T01:09:13.305Z,25.4
2018-08-17T01:10:03.101Z,25.4
2018-08-17T01:10:52.879Z,25.3
2018-08-17T01:11:43.055Z,25.3
2018-08-17T01:12:32.746Z,25.3
2018-08-17T01:13:23.361Z,25.3
2018-08-17T01:14:13.716Z,25.3
2018-08-17T01:15:03.492Z,25.3
2018-08-17T01:15:53.010Z,25.3
2018-08-17T01:16:43.594Z,25.4
2018-08-17T01:17:33.942Z,25.3
2018-08-17T01:18:23.242Z,25.4
2018-08-17T01:19:14.063Z,25.4
2018-08-17T01:20:04.145Z,25.3
2018-08-17T01:20:53.953Z,25.4
2018-08-17T01:21:43.708Z,25.3
2018-08-17T01:22:34.392Z,25.3
2018-08-17T01:23:24.152Z,25.3
2018-08-17T01:24:14.270Z,25.3
2018-08-17T01:25:04.597Z,25.3
2018-08-17T01:25:54.634Z,25.4
2018-08-17T01:26:43.910Z,25.3
2018-08-17T01:27:34.469Z,25.3
2018-08-17T01:28:24.552Z,25.3
2018-08-17T01:29:14.674Z,25.3
2018-08-17T01:30:04.945Z,25.3
2018-08-17T01:30:54.793Z,25.3
2018-08-17T01:31:45.062Z,25.3
2018-08-17T01:32:34.057Z,25.3
2018-08-17T01:33:24.389Z,25.3
2018-08-17T01:34:14.501Z,25.3
2018-08-17T01:35:04.507Z,25.3
2018-08-17T01:35:54.584Z,25.3
2018-08-17T01:36:44.916Z,25.3
2018-08-17T01:37:34.981Z,25.3
2018-08-17T01:38:25.373Z,25.3
2018-08-17T01:39:14.824Z,25.3
2018-08-17T01:40:05.408Z,25.3
2018-08-17T01:40:55.529Z,25.3
2018-08-17T01:41:45.836Z,25.3
2018-08-17T01:42:35.627Z,25.3
2018-08-17T01:43:26.011Z,25.3
2018-08-17T01:44:15.489Z,25.3
2018-08-17T01:45:05.411Z,25.3
2018-08-17T01:45:55.893Z,25.3
2018-08-17T01:46:45.716Z,25.3
2018-08-17T01:47:35.730Z,25.3
2018-08-17T01:48:25.809Z,25.3
2018-08-17T01:49:16.425Z,25.3
2018-08-17T01:50:06.206Z,25.3
2018-08-17T01:50:56.033Z,25.3
2018-08-17T01:51:46.383Z,25.3
2018-08-17T01:52:36.441Z,25.3
2018-08-17T01:53:25.956Z,25.3
2018-08-17T01:54:16.807Z,25.3
2018-08-17T01:55:06.635Z,25.3
2018-08-17T01:55:57.001Z,25.3
2018-08-17T01:56:45.900Z,25.3
2018-08-17T01:57:36.247Z,25.3
2018-08-17T01:58:26.100Z,25.3
2018-08-17T01:59:17.013Z,25.3
2018-08-17T02:00:06.740Z,25.3
2018-08-17T02:00:56.220Z,25.3
2018-08-17T02:01:47.449Z,25.3
2018-08-17T02:02:36.631Z,25.3
2018-08-17T02:03:26.732Z,25.3
2018-08-17T02:04:17.411Z,25.3
2018-08-17T02:05:07.380Z,25.3
2018-08-17T02:05:57.456Z,25.3
2018-08-17T02:06:47.249Z,25.3
2018-08-17T02:07:37.057Z,25.3
2018-08-17T02:08:27.359Z,25.3
2018-08-17T02:09:16.969Z,25.3
2018-08-17T02:10:07.774Z,25.3
2018-08-17T02:10:57.299Z,25.3
2018-08-17T02:11:47.937Z,25.3
2018-08-17T02:12:37.768Z,25.3
2018-08-17T02:13:27.765Z,25.3
2018-08-17T02:14:17.551Z,25.3
2018-08-17T02:15:07.611Z,25.3
2018-08-17T02:15:58.220Z,25.3
2018-08-17T02:16:47.458Z,25.3
2018-08-17T02:17:38.343Z,25.3
2018-08-17T02:18:27.852Z,25.3
2018-08-17T02:19:18.181Z,25.3
2018-08-17T02:20:08.314Z,25.3
2018-08-17T02:20:58.060Z,25.3
2018-08-17T02:21:48.391Z,25.3
2018-08-17T02:22:38.987Z,25.3
2018-08-17T02:23:28.527Z,25.3
2018-08-17T02:24:18.806Z,25.3
2018-08-17T02:25:08.099Z,25.3
2018-08-17T02:25:58.981Z,25.3
2018-08-17T02:26:49.322Z,25.3
2018-08-17T02:27:39.410Z,25.3
2018-08-17T02:28:29.176Z,25.3
2018-08-17T02:29:18.724Z,25.3
2018-08-17T02:30:08.775Z,25.3
2018-08-17T02:30:59.403Z,25.3
2018-08-17T02:31:49.161Z,25.3
2018-08-17T02:32:39.247Z,25.3
2018-08-17T02:33:28.770Z,25.3
2018-08-17T02:34:19.430Z,25.3
2018-08-17T02:35:10.017Z,25.3
2018-08-17T02:35:59.799Z,25.3
2018-08-17T02:36:50.166Z,25.3
2018-08-17T02:37:39.664Z,25.3
2018-08-17T02:38:30.335Z,25.3
2018-08-17T02:39:20.432Z,25.3
2018-08-17T02:40:09.845Z,25.3
2018-08-17T02:40:59.979Z,25.3
2018-08-17T02:41:50.255Z,25.3
2018-08-17T02:42:40.035Z,25.3
2018-08-17T02:43:30.713Z,25.3
2018-08-17T02:44:19.602Z,25.3
2018-08-17T02:45:10.497Z,25.3
2018-08-17T02:46:00.350Z,25.3
2018-08-17T02:46:50.939Z,25.3
2018-08-17T02:47:40.446Z,25.3
2018-08-17T02:48:30.779Z,25.3
2018-08-17T02:49:21.167Z,25.3
2018-08-17T02:50:10.637Z,25.3
2018-08-17T02:51:00.947Z,25.3
2018-08-17T02:51:50.735Z,25.3
2018-08-17T02:52:40.838Z,25.3
2018-08-17T02:53:30.577Z,25.3
2018-08-17T02:54:21.198Z,25.3
2018-08-17T02:55:11.104Z,25.3
2018-08-17T02:56:01.352Z,25.3
2018-08-17T02:56:51.419Z,25.3
2018-08-17T02:57:40.626Z,25.3
2018-08-17T02:58:31.601Z,25.3
2018-08-17T02:59:21.788Z,25.3
2018-08-17T03:00:11.156Z,25.3
2018-08-17T03:01:01.794Z,25.3
2018-08-17T03:01:52.091Z,25.3
2018-08-17T03:02:41.281Z,25.3
2018-08-17T03:03:31.376Z,25.3
2018-08-17T03:04:22.011Z,25.3
2018-08-17T03:05:11.806Z,25.3
2018-08-17T03:06:01.574Z,25.3
2018-08-17T03:06:51.659Z,25.3
2018-08-17T03:07:41.410Z,25.3
2018-08-17T03:08:32.305Z,25.3
2018-08-17T03:09:21.796Z,25.3
2018-08-17T03:10:12.486Z,25.3
2018-08-17T03:11:02.582Z,25.3
2018-08-17T03:11:53.257Z,25.3
2018-08-17T03:12:42.051Z,25.3
2018-08-17T03:13:32.491Z,25.3
2018-08-17T03:14:22.811Z,25.3
2018-08-17T03:15:13.147Z,25.3
2018-08-17T03:16:02.936Z,25.3
2018-08-17T03:16:52.752Z,25.3
2018-08-17T03:17:43.344Z,25.3
2018-08-17T03:18:32.861Z,25.3
2018-08-17T03:19:22.923Z,25.3
2018-08-17T03:20:13.564Z,25.3
2018-08-17T03:21:03.329Z,25.3
2018-08-17T03:21:52.702Z,25.3
2018-08-17T03:22:42.685Z,25.3
2018-08-17T03:23:33.780Z,25.3
2018-08-17T03:24:23.285Z,25.3
2018-08-17T03:25:28.392Z,25.3
2018-08-17T03:26:03.744Z,25.3
2018-08-17T03:26:53.447Z,25.3
2018-08-17T03:27:43.789Z,25.3
2018-08-17T03:28:33.828Z,25.3
2018-08-17T03:29:24.141Z,25.3
2018-08-17T03:30:12.856Z,25.3
2018-08-17T03:31:04.205Z,25.3
2018-08-17T03:31:54.375Z,25.3
2018-08-17T03:32:43.875Z,25.3
2018-08-17T03:33:34.473Z,25.3
2018-08-17T03:34:24.567Z,25.3
2018-08-17T03:35:14.072Z,25.3
2018-08-17T03:36:04.459Z,25.3
2018-08-17T03:36:54.751Z,25.3
2018-08-17T03:37:44.816Z,25.3
2018-08-17T03:38:34.325Z,25.3
2018-08-17T03:39:24.384Z,25.3
2018-08-17T03:40:14.746Z,25.3
2018-08-17T03:41:04.814Z,25.3
2018-08-17T03:41:54.935Z,25.3
2018-08-17T03:42:44.974Z,25.3
2018-08-17T03:43:35.281Z,25.3
2018-08-17T03:44:24.837Z,25.3
2018-08-17T03:45:14.629Z,25.3
2018-08-17T03:46:05.216Z,25.3
2018-08-17T03:46:55.580Z,25.3
2018-08-17T03:47:45.385Z,25.3
2018-08-17T03:48:35.709Z,25.3
2018-08-17T03:49:24.983Z,25.3
2018-08-17T03:50:15.543Z,25.3
2018-08-17T03:51:05.888Z,25.3
2018-08-17T03:51:55.959Z,25.3
2018-08-17T03:52:45.752Z,25.3
2018-08-17T03:53:35.844Z,25.3
2018-08-17T03:54:26.180Z,25.3
2018-08-17T03:55:15.691Z,25.3
2018-08-17T03:56:06.294Z,25.3
2018-08-17T03:56:56.390Z,25.3
2018-08-17T03:57:45.322Z,25.3
2018-08-17T03:58:35.642Z,25.3
2018-08-17T03:59:25.992Z,25.3
2018-08-17T04:00:16.316Z,25.3
2018-08-17T04:01:06.397Z,25.3
2018-08-17T04:01:56.507Z,25.3
2018-08-17T04:02:46.195Z,25.3
2018-08-17T04:03:35.978Z,25.3
2018-08-17T04:04:26.337Z,25.3
2018-08-17T04:05:16.936Z,25.3
2018-08-17T04:06:07.048Z,25.3
2018-08-17T04:06:56.528Z,25.3
2018-08-17T04:07:46.903Z,25.3
2018-08-17T04:08:36.940Z,25.3
2018-08-17T04:09:26.747Z,25.3
2018-08-17T04:10:16.618Z,25.3
2018-08-17T04:11:06.368Z,25.3
2018-08-17T04:11:56.166Z,25.3
2018-08-17T04:12:46.382Z,25.3
2018-08-17T04:13:36.872Z,25.3
2018-08-17T04:14:26.975Z,25.3
2018-08-17T04:15:16.968Z,25.3
2018-08-17T04:16:07.316Z,25.3
2018-08-17T04:16:57.362Z,25.3
2018-08-17T04:17:47.466Z,25.3
2018-08-17T04:18:37.490Z,25.3
2018-08-17T04:19:27.515Z,25.3
2018-08-17T04:20:18.157Z,25.3
2018-08-17T04:21:07.945Z,25.3
2018-08-17T04:21:58.346Z,25.3
2018-08-17T04:22:48.102Z,25.3
2018-08-17T04:23:38.440Z,25.3
2018-08-17T04:24:27.981Z,25.3
2018-08-17T04:25:18.573Z,25.3
2018-08-17T04:26:08.333Z,25.3
2018-08-17T04:26:58.412Z,25.3
2018-08-17T04:27:47.718Z,25.3
2018-08-17T04:28:38.066Z,25.3
2018-08-17T04:29:28.385Z,25.3
2018-08-17T04:30:18.476Z,25.3
2018-08-17T04:31:08.233Z,25.3
2018-08-17T04:31:57.762Z,25.3
2018-08-17T04:32:48.623Z,25.3
2018-08-17T04:33:38.140Z,25.3
2018-08-17T04:34:27.991Z,25.3
2018-08-17T04:35:18.567Z,25.3
2018-08-17T04:36:09.409Z,25.3
2018-08-17T04:36:58.883Z,25.3
2018-08-17T04:37:48.668Z,25.3
2018-08-17T04:38:39.511Z,25.3
2018-08-17T04:39:29.632Z,25.3
2018-08-17T04:40:19.643Z,25.3
2018-08-17T04:41:09.280Z,25.3
2018-08-17T04:41:59.519Z,25.3
2018-08-17T04:42:49.088Z,25.3
2018-08-17T04:43:39.532Z,25.3
2018-08-17T04:44:28.683Z,25.3
2018-08-17T04:45:19.073Z,25.3
2018-08-17T04:46:09.358Z,25.3
2018-08-17T04:46:59.311Z,25.2
2018-08-17T04:47:49.694Z,25.2
2018-08-17T04:48:39.753Z,25.3
2018-08-17T05:07:23.833Z,25.3
2018-08-17T05:07:52.854Z,25.3
2018-08-17T05:08:56.443Z,25.3
2018-08-17T05:09:46.056Z,25.3
2018-08-17T05:10:21.057Z,25.3
2018-08-17T05:11:10.265Z,25.3
2018-08-17T05:12:01.380Z,25.3
2018-08-17T05:12:51.460Z,25.3
2018-08-17T05:13:41.815Z,25.3
2018-08-17T05:14:31.064Z,25.3
2018-08-17T05:15:21.416Z,25.3
2018-08-17T05:16:11.996Z,25.3
2018-08-17T05:17:01.831Z,25.3
2018-08-17T05:17:52.161Z,25.3
2018-08-17T05:18:41.643Z,25.3
2018-08-17T05:19:31.233Z,25.3
2018-08-17T05:20:21.315Z,25.3
2018-08-17T05:21:11.946Z,25.3
2018-08-17T05:22:02.244Z,25.4
2018-08-17T05:22:52.595Z,25.3
2018-08-17T05:23:42.354Z,25.3
2018-08-17T05:24:32.116Z,25.4
2018-08-17T05:25:21.977Z,25.4
2018-08-17T05:26:11.482Z,25.4
2018-08-17T05:27:02.896Z,25.4
2018-08-17T05:27:52.413Z,25.4
2018-08-17T05:28:42.454Z,25.4
2018-08-17T05:29:32.784Z,25.4
2018-08-17T05:30:22.355Z,25.4
2018-08-17T05:31:12.157Z,25.4
2018-08-17T05:32:02.708Z,25.4
2018-08-17T05:32:53.088Z,25.4
2018-08-17T05:33:43.127Z,25.4
2018-08-17T05:34:32.627Z,25.4
2018-08-17T05:35:23.447Z,25.4
2018-08-17T05:36:12.958Z,25.5
2018-08-17T05:37:02.609Z,25.5
2018-08-17T05:37:53.629Z,25.5
2018-08-17T05:38:43.729Z,25.5
2018-08-17T05:39:33.248Z,25.6
2018-08-17T05:40:23.309Z,25.6
2018-08-17T05:41:13.901Z,25.6
2018-08-17T05:42:03.692Z,25.6
2018-08-17T05:42:53.816Z,25.6
2018-08-17T05:43:44.096Z,25.6
2018-08-17T05:44:34.139Z,25.6
2018-08-17T05:45:23.674Z,25.6
2018-08-17T05:46:14.276Z,25.6
2018-08-17T05:47:04.085Z,25.6
2018-08-17T05:47:53.661Z,25.6
2018-08-17T05:48:43.628Z,25.6
2018-08-17T05:49:34.025Z,25.6
2018-08-17T05:50:23.621Z,25.6
2018-08-17T05:51:14.218Z,25.6
2018-08-17T05:52:03.739Z,25.6
2018-08-17T05:52:54.143Z,25.6
2018-08-17T05:53:44.471Z,25.6
2018-08-17T05:54:34.008Z,25.6
2018-08-17T05:55:24.283Z,25.6
2018-08-17T05:56:14.807Z,25.6
2018-08-17T05:57:05.214Z,25.6
2018-08-17T05:57:54.948Z,25.6
2018-08-17T05:58:44.278Z,25.6
2018-08-17T05:59:35.109Z,25.6
2018-08-17T06:00:25.155Z,25.6
2018-08-17T06:01:14.385Z,25.6
2018-08-17T06:02:05.304Z,25.6
2018-08-17T06:02:57.035Z,25.6
2018-08-17T06:03:45.116Z,25.6
2018-08-17T06:04:35.186Z,25.6
2018-08-17T06:05:25.340Z,25.6
2018-08-17T06:06:15.920Z,25.6
2018-08-17T06:07:05.678Z,25.6
2018-08-17T06:07:55.803Z,25.6
2018-08-17T06:08:45.526Z,25.6
2018-08-17T06:09:35.864Z,25.6
2018-08-17T06:10:26.185Z,25.6
2018-08-17T06:11:19.670Z,25.6
2018-08-17T06:12:06.026Z,25.6
2018-08-17T06:12:56.047Z,25.6
2018-08-17T06:13:46.421Z,25.6
2018-08-17T06:14:36.503Z,25.6
2018-08-17T06:15:26.516Z,25.6
2018-08-17T06:16:16.110Z,25.6
2018-08-17T06:17:06.396Z,25.6
2018-08-17T06:17:56.713Z,25.6
2018-08-17T06:18:46.216Z,25.6
2018-08-17T06:19:36.561Z,25.6
2018-08-17T06:20:26.645Z,25.6
2018-08-17T06:21:16.988Z,25.6
2018-08-17T06:22:07.050Z,25.6
2018-08-17T06:22:57.080Z,25.6
2018-08-17T06:23:46.618Z,25.6
2018-08-17T06:24:37.253Z,25.6
2018-08-17T06:25:27.326Z,25.6
2018-08-17T06:26:17.397Z,25.6
2018-08-17T06:27:06.882Z,25.6
2018-08-17T06:27:57.513Z,25.6
2018-08-17T06:28:47.606Z,25.6
2018-08-17T06:29:37.175Z,25.6
2018-08-17T06:30:27.194Z,25.6
2018-08-17T06:31:17.267Z,25.6
2018-08-17T06:32:07.600Z,25.6
2018-08-17T06:32:57.931Z,25.6
2018-08-17T06:33:47.444Z,25.6
2018-08-17T06:34:37.234Z,25.8
2018-08-17T06:35:27.019Z,27
2018-08-17T06:36:18.138Z,27.7
2018-08-17T06:37:08.210Z,29.3
2018-08-17T06:37:58.354Z,30
2018-08-17T06:38:47.868Z,29.9
2018-08-17T06:39:38.587Z,29.6
2018-08-17T06:40:28.283Z,29.3
2018-08-17T06:41:18.601Z,29.4
2018-08-17T06:42:08.518Z,29.6
2018-08-17T06:42:58.703Z,29.8
2018-08-17T06:43:48.523Z,30.1
2018-08-17T06:44:38.920Z,30.3
2018-08-17T06:45:28.898Z,30.4
2018-08-17T06:46:18.914Z,30.5
2018-08-17T06:47:08.702Z,30.6
2018-08-17T06:47:58.800Z,30.7
2018-08-17T06:48:48.828Z,30.8
2018-08-17T06:49:38.930Z,30.9
2018-08-17T06:50:29.015Z,31.1
2018-08-17T06:51:18.972Z,31.2
2018-08-17T06:52:09.510Z,31.3
2018-08-17T06:52:59.190Z,31.4
2018-08-17T06:53:49.519Z,31.7
2018-08-17T06:54:39.578Z,31.9
2018-08-17T06:55:29.136Z,32.1
2018-08-17T06:56:19.419Z,32.3
2018-08-17T06:57:10.353Z,32.4
2018-08-17T06:57:59.271Z,32.4
2018-08-17T06:58:49.618Z,32.5
2018-08-17T06:59:40.056Z,32.6
2018-08-17T07:00:29.303Z,32.6
2018-08-17T07:01:19.890Z,32.7
2018-08-17T07:02:09.922Z,32.8
2018-08-17T07:03:00.276Z,33
2018-08-17T07:03:49.481Z,33.1
2018-08-17T07:04:39.594Z,33.1
2018-08-17T07:05:29.904Z,33.1
2018-08-17T07:06:19.936Z,33.1
2018-08-17T07:07:09.759Z,33.1
2018-08-17T07:08:00.611Z,33.1
2018-08-17T07:08:52.995Z,33.2
2018-08-17T07:09:41.534Z,33.3
2018-08-17T07:10:30.259Z,33.3
2018-08-17T07:11:20.621Z,33.3
2018-08-17T07:12:10.378Z,33.4
2018-08-17T07:13:01.138Z,33.4
2018-08-17T07:13:50.856Z,33.5
2018-08-17T07:14:40.613Z,33.5
2018-08-17T07:15:30.944Z,33.6
2018-08-17T07:16:20.473Z,33.6
2018-08-17T07:17:11.121Z,33.7
2018-08-17T07:18:01.188Z,33.8
2018-08-17T07:18:51.504Z,33.8
2018-08-17T07:19:41.540Z,33.9
2018-08-17T07:20:31.370Z,33.9
2018-08-17T07:21:21.386Z,34.1
2018-08-17T07:22:11.718Z,34.3
2018-08-17T07:23:00.956Z,34.4
2018-08-17T07:23:51.855Z,34.5
2018-08-17T07:24:41.628Z,34.5
2018-08-17T07:25:31.253Z,34.6
2018-08-17T07:26:21.730Z,34.6
2018-08-17T07:27:12.088Z,34.6
2018-08-17T07:28:02.652Z,34.7
2018-08-17T07:28:51.917Z,34.8
2018-08-17T07:29:42.276Z,34.9
2018-08-17T07:30:31.835Z,35
2018-08-17T07:31:21.884Z,35.1
2018-08-17T07:32:12.456Z,35.1
2018-08-17T07:33:02.395Z,35.2
2018-08-17T07:33:52.643Z,35.3
2018-08-17T07:34:42.097Z,35.3
2018-08-17T07:35:32.225Z,35.3
2018-08-17T07:36:22.585Z,35.4
2018-08-17T07:37:12.333Z,35.4
2018-08-17T07:38:02.673Z,35.4
2018-08-17T07:38:51.873Z,35.6
2018-08-17T07:39:43.101Z,35.8
2018-08-17T07:40:33.176Z,36.1
2018-08-17T07:41:22.984Z,36.3
2018-08-17T07:42:13.146Z,36.6
2018-08-17T07:43:03.126Z,36.9
2018-08-17T07:43:53.199Z,37.1
2018-08-17T07:44:43.217Z,37.3
2018-08-17T07:45:33.564Z,37.5
2018-08-17T07:46:23.644Z,37.7
2018-08-17T07:47:14.115Z,37.9
2018-08-17T07:48:05.535Z,38
2018-08-17T07:48:53.264Z,38.2
2018-08-17T07:49:43.620Z,38.4
2018-08-17T07:50:33.420Z,38.7
2018-08-17T07:51:23.489Z,38.9
2018-08-17T07:52:14.135Z,39.1
2018-08-17T07:53:03.855Z,39.3
2018-08-17T07:53:53.932Z,39.4
2018-08-17T07:54:44.332Z,39.6
2018-08-17T07:55:34.350Z,39.8
2018-08-17T07:56:24.102Z,39.9
2018-08-17T07:57:14.143Z,40.1
2018-08-17T07:58:04.493Z,40.3
2018-08-17T07:58:54.687Z,40.5
2018-08-17T07:59:44.587Z,40.7
2018-08-17T08:00:34.141Z,40.8
2018-08-17T08:01:24.463Z,41
2018-08-17T08:02:14.815Z,41.2
2018-08-17T08:03:04.295Z,41.4
2018-08-17T08:03:54.375Z,41.6
2018-08-17T08:04:44.999Z,41.8
2018-08-17T08:05:34.864Z,41.9
2018-08-17T08:06:25.139Z,42.1
2018-08-17T08:07:15.207Z,42.3
2018-08-17T08:08:04.666Z,42.4
2018-08-17T08:08:55.040Z,42.4
2018-08-17T08:09:45.111Z,42.3
2018-08-17T08:10:35.919Z,42.2
2018-08-17T08:11:24.512Z,42.2
2018-08-17T08:12:15.622Z,42.4
2018-08-17T08:13:04.885Z,42.6
2018-08-17T08:13:55.429Z,42.7
2018-08-17T08:14:45.819Z,42.9
2018-08-17T08:15:35.587Z,43.1
2018-08-17T08:16:25.143Z,43.2
2018-08-17T08:17:15.818Z,43.4
2018-08-17T08:18:05.840Z,43.5
2018-08-17T08:18:55.890Z,43.7
2018-08-17T08:19:45.364Z,43.9
2018-08-17T08:20:36.749Z,44.1
2018-08-17T08:21:26.082Z,44.2
2018-08-17T08:22:16.135Z,44.4
2018-08-17T08:23:06.186Z,44.6
2018-08-17T08:23:56.087Z,44.7
2018-08-17T08:24:46.603Z,44.8
2018-08-17T08:25:35.826Z,44.8
2018-08-17T08:26:26.460Z,45
2018-08-17T08:27:16.238Z,45.1
2018-08-17T08:28:06.327Z,45.3
2018-08-17T08:28:56.690Z,45.5
2018-08-17T08:29:45.972Z,45.6
2018-08-17T08:30:37.047Z,45.8
2018-08-17T08:31:26.573Z,45.9
2018-08-17T08:32:17.327Z,46.1
2018-08-17T08:33:06.971Z,46.3
2018-08-17T08:33:56.988Z,46.4
2018-08-17T08:34:47.084Z,46.6
2018-08-17T08:35:36.908Z,46.7
2018-08-17T08:36:27.463Z,46.8
2018-08-17T08:37:16.969Z,46.9
2018-08-17T08:38:07.327Z,47.1
2018-08-17T08:38:57.116Z,47.2
2018-08-17T08:39:47.679Z,47.4
2018-08-17T08:40:37.806Z,47.5
2018-08-17T08:41:27.352Z,47.6
2018-08-17T08:42:17.714Z,47.8
2018-08-17T08:43:07.974Z,47.9
2018-08-17T08:43:58.037Z,48.1
2018-08-17T08:44:48.105Z,48.1
2018-08-17T08:45:38.645Z,48.3
2018-08-17T08:46:27.725Z,48.4
2018-08-17T08:47:18.038Z,48.6
2018-08-17T08:48:08.400Z,48.7
2018-08-17T08:48:58.417Z,48.8
2018-08-17T08:49:48.502Z,48.9
2018-08-17T08:50:38.125Z,49.1
2018-08-17T08:51:28.692Z,49.2
2018-08-17T08:52:18.783Z,49.3
2018-08-17T08:53:08.843Z,49.4
2018-08-17T08:53:58.375Z,49.6
2018-08-17T08:54:48.682Z,49.7
2018-08-17T08:55:38.785Z,49.8
2018-08-17T08:56:28.894Z,49.9
2018-08-17T08:57:19.147Z,50.1
2018-08-17T08:58:08.635Z,50.2
2018-08-17T08:58:58.507Z,50.3
2018-08-17T08:59:49.373Z,50.4
2018-08-17T09:00:39.141Z,50.5
2018-08-17T09:01:29.187Z,50.6
2018-08-17T09:02:18.769Z,50.8
2018-08-17T09:03:09.605Z,50.9
2018-08-17T09:03:57.784Z,51
2018-08-17T09:04:49.803Z,51.1
2018-08-17T09:21:20.122Z,53.3
2018-08-17T09:22:05.377Z,53.5
2018-08-17T09:22:54.920Z,53.6
2018-08-17T09:23:45.755Z,53.7
2018-08-17T09:24:35.810Z,53.8
2018-08-17T09:25:25.614Z,53.9
2018-08-17T09:26:15.964Z,54
2018-08-17T09:27:05.434Z,54.1
2018-08-17T09:27:56.121Z,54.2
2018-08-17T09:28:45.812Z,54.3
2018-08-17T09:29:35.931Z,54.4
2018-08-17T09:30:26.352Z,54.5
2018-08-17T09:31:16.106Z,54.6
2018-08-17T09:32:05.881Z,54.7
2018-08-17T09:32:56.310Z,54.8
2018-08-17T09:33:46.003Z,54.9
2018-08-17T09:34:36.127Z,55
2018-08-17T09:35:26.714Z,55.1
2018-08-17T09:36:16.626Z,55.2
2018-08-17T09:37:06.622Z,55.3
2018-08-17T09:37:56.931Z,55.4
2018-08-17T09:38:46.422Z,55.5
2018-08-17T09:39:36.490Z,55.6
2018-08-17T09:40:27.090Z,55.7
2018-08-17T09:41:16.127Z,55.8
2018-08-17T09:42:06.851Z,55.9
2018-08-17T09:42:56.996Z,55.9
2018-08-17T09:43:46.290Z,56
2018-08-17T09:44:36.578Z,56.1
2018-08-17T09:45:26.935Z,56.2
2018-08-17T09:46:17.290Z,56.3
2018-08-17T09:47:07.600Z,56.4
2018-08-17T09:47:57.195Z,56.4
2018-08-17T09:48:46.110Z,56.6
2018-08-17T09:49:36.839Z,56.6
2018-08-17T09:50:27.856Z,56.8
2018-08-17T09:51:17.094Z,56.8
2018-08-17T09:52:07.464Z,56.8
2018-08-17T09:52:58.069Z,56.9
2018-08-17T09:53:47.554Z,57.1
2018-08-17T09:54:37.423Z,57.1
2018-08-17T09:55:27.946Z,57.2
2018-08-17T09:56:17.433Z,57.3
2018-08-17T09:57:07.793Z,57.4
2018-08-17T09:57:57.989Z,57.4
2018-08-17T09:58:47.734Z,57.5
2018-08-17T09:59:37.716Z,57.6
2018-08-17T10:00:28.334Z,57.7
2018-08-17T10:01:17.408Z,57.8
2018-08-17T10:02:07.961Z,57.9
2018-08-17T10:02:58.617Z,57.9
2018-08-17T10:03:49.064Z,57.9
2018-08-17T10:04:39.020Z,58.1
2018-08-17T10:05:28.427Z,58.1
2018-08-17T10:06:18.857Z,58.1
2018-08-17T10:07:08.676Z,58.3
2018-08-17T10:07:58.993Z,58.4
2018-08-17T10:08:49.077Z,58.4
2018-08-17T10:09:39.150Z,58.4
2018-08-17T10:10:28.973Z,58.2
2018-08-17T10:11:19.271Z,57.9
2018-08-17T10:12:08.765Z,57.7
2018-08-17T10:12:58.986Z,57.6
2018-08-17T10:13:49.473Z,57.4
2018-08-17T10:14:39.210Z,57.6
2018-08-17T10:15:29.267Z,57.9
2018-08-17T10:16:19.642Z,58.3
2018-08-17T10:17:09.459Z,58.4
2018-08-17T10:17:59.864Z,58.6
2018-08-17T10:18:49.870Z,58.7
2018-08-17T10:19:39.333Z,58.8
2018-08-17T10:20:29.968Z,58.9
2018-08-17T10:21:25.135Z,59
2018-08-17T10:22:13.373Z,58.9
2018-08-17T10:22:59.908Z,58.8
2018-08-17T10:23:50.483Z,58.5
2018-08-17T10:24:39.451Z,58.3
2018-08-17T10:25:30.314Z,58
2018-08-17T10:26:20.110Z,57.9
2018-08-17T10:28:00.843Z,57.6
2018-08-17T10:28:49.824Z,57.5
2018-08-17T10:29:40.634Z,57.3
2018-08-17T10:30:31.014Z,57.3
2018-08-17T10:31:20.546Z,57.1
2018-08-17T10:32:10.277Z,57
2018-08-17T10:33:00.711Z,56.9
2018-08-17T10:33:50.864Z,56.8
2018-08-17T10:34:40.796Z,56.7
2018-08-17T10:35:31.175Z,56.6
2018-08-17T10:36:21.479Z,56.5
2018-08-17T10:37:11.515Z,56.4
2018-08-17T10:38:00.875Z,56.3
2018-08-17T10:38:51.394Z,56.3
2018-08-17T10:39:41.220Z,56.2
2018-08-17T10:40:31.202Z,56.1
2018-08-17T10:41:21.017Z,56
2018-08-17T10:42:11.720Z,55.9
2018-08-17T10:43:02.021Z,55.8
2018-08-17T10:43:51.826Z,55.8
2018-08-17T10:44:41.124Z,55.7
2018-08-17T10:45:32.257Z,55.6
2018-08-17T10:46:22.286Z,55.6
2018-08-17T10:47:12.058Z,55.4
2018-08-17T10:48:02.122Z,55.4
2018-08-17T10:48:53.395Z,55.4
2018-08-17T10:49:41.204Z,55.3
2018-08-17T10:50:32.407Z,55.3
2018-08-17T10:51:22.422Z,55.3
2018-08-17T10:52:12.726Z,55.3
2018-08-17T10:53:01.957Z,55.5
2018-08-17T10:53:52.844Z,55.6
2018-08-17T10:54:42.679Z,55.5
2018-08-17T10:55:33.158Z,55.4
2018-08-17T10:56:22.892Z,55.4
2018-08-17T10:57:12.827Z,55.3
2018-08-17T10:58:03.179Z,55.4
2018-08-17T10:58:52.969Z,55.4
2018-08-17T10:59:43.256Z,55.4
2018-08-17T11:00:33.041Z,55.4
2018-08-17T11:01:23.381Z,55.3
2018-08-17T11:02:13.465Z,55.2
2018-08-17T11:03:03.576Z,55.1
2018-08-17T11:03:53.348Z,55
2018-08-17T11:04:43.686Z,54.9
2018-08-17T11:05:32.913Z,54.9
2018-08-17T11:06:23.534Z,54.8
2018-08-17T11:07:13.018Z,54.7
2018-08-17T11:08:03.919Z,54.7
2018-08-17T11:08:53.959Z,54.6
2018-08-17T11:09:43.247Z,54.6
2018-08-17T11:10:33.819Z,54.5
2018-08-17T11:11:24.008Z,54.4
2018-08-17T11:12:13.423Z,54.3
2018-08-17T11:13:04.005Z,54.2
2018-08-17T11:13:54.407Z,54.1
2018-08-17T11:14:43.640Z,54.1
2018-08-17T11:15:34.377Z,54.1
2018-08-17T11:16:24.600Z,54.2
2018-08-17T11:17:14.567Z,54.5
2018-08-17T11:18:04.852Z,54.8
2018-08-17T11:18:54.554Z,55
2018-08-17T11:19:44.586Z,55
2018-08-17T11:20:34.723Z,54.9
2018-08-17T11:21:24.753Z,54.7
2018-08-17T11:22:14.797Z,54.6
2018-08-17T11:23:05.044Z,54.5
2018-08-17T11:23:54.935Z,54.5
2018-08-17T11:24:45.262Z,54.5
2018-08-17T11:25:35.067Z,54.5
2018-08-17T11:26:25.164Z,54.4
2018-08-17T11:27:15.479Z,54.4
2018-08-17T11:28:04.456Z,54.3
2018-08-17T11:28:55.011Z,54.3
2018-08-17T11:29:45.670Z,54.4
2018-08-17T11:30:35.527Z,54.6
2018-08-17T11:31:24.971Z,54.6
2018-08-17T11:32:15.916Z,54.6
2018-08-17T11:33:05.388Z,54.5
2018-08-17T11:33:55.455Z,54.3
2018-08-17T11:34:46.082Z,54.3
2018-08-17T11:35:36.097Z,54.2
2018-08-17T11:36:26.132Z,54.2
2018-08-17T11:37:15.947Z,54.1
2018-08-17T11:38:05.470Z,54.1
2018-08-17T11:38:54.790Z,54.1
2018-08-17T11:39:45.341Z,54.1
2018-08-17T11:40:35.699Z,54.1
2018-08-17T11:41:25.510Z,54.1
2018-08-17T11:42:15.104Z,54.1
2018-08-17T11:43:05.330Z,54.1
2018-08-17T11:43:56.256Z,54
2018-08-17T11:44:45.621Z,54.1
2018-08-17T11:45:36.120Z,54
2018-08-17T11:46:25.954Z,54
2018-08-17T11:47:16.793Z,53.9
2018-08-17T11:48:05.967Z,53.9
2018-08-17T11:48:55.942Z,53.8
2018-08-17T11:49:46.444Z,53.7
2018-08-17T11:50:37.277Z,53.6
2018-08-17T11:51:27.340Z,53.5
2018-08-17T11:52:17.127Z,53.4
2018-08-17T11:53:06.977Z,53.4
2018-08-17T11:53:58.423Z,53.3
2018-08-17T11:54:47.400Z,53.3
2018-08-17T11:55:37.441Z,53.3
2018-08-17T11:56:27.216Z,53.2
2018-08-17T11:57:17.315Z,53.2
2018-08-17T11:58:07.326Z,53.2
2018-08-17T11:58:57.371Z,53.2
2018-08-17T11:59:47.773Z,53.1
2018-08-17T12:00:38.138Z,53.1
2018-08-17T12:01:27.599Z,53
2018-08-17T12:02:17.977Z,52.9
2018-08-17T12:03:07.759Z,52.9
2018-08-17T12:03:57.809Z,52.9
2018-08-17T12:04:48.434Z,52.9
2018-08-17T12:05:38.227Z,52.8
2018-08-17T12:06:28.336Z,52.8
2018-08-17T12:07:18.658Z,52.8
2018-08-17T12:08:09.592Z,52.9
2018-08-17T12:08:58.241Z,53.2
2018-08-17T12:09:48.875Z,53.4
2018-08-17T12:10:38.585Z,53.6
2018-08-17T12:11:28.627Z,53.4
2018-08-17T12:12:18.674Z,53.3
2018-08-17T12:13:08.198Z,53.1
2018-08-17T12:13:58.823Z,53
2018-08-17T12:14:48.894Z,53
2018-08-17T12:15:38.679Z,52.9
2018-08-17T12:16:28.833Z,53
2018-08-17T12:17:19.367Z,53.1
2018-08-17T12:18:09.126Z,53.1
2018-08-17T12:18:59.385Z,53.1